Accueil
METAR-TAF:

METAR-TAF

Aéroports :

Aérodrome de Logrogne

Logroño, Espagne

latitude: 42-27N, longitude: 002-20W, altitude: 353 m

Observation

Le bulletin a été fait il y a 25 minutes, à 17:30 UTC
Vent calme
Température 20°C
Humidité 73%
Pression 1020 hPa
Visibilité 10 km ou plus
Quelques nuages à une hauteur de 5000 ft

METAR: LELO 281730Z 00000KT 9999 FEW050 20/15 Q1020

Heure: 19:55 (17:55 UTC)

Prévision

Le bulletin a été fait il y a 3 heures et 55 minutes, à 14:00 UTC
Prévision valable du 28 à 15 UTC au 29 à 15 UTC
Vent 4 kt de direction variable
Visibilité 10 km ou plus
pas de nuages en-dessous de 1500 mètres et pas de cumulonimbus.
Probabilité 40% :
Temporairement
du 28 à 16 UTC au 28 à 20 UTC
Vent 10 kt de nord avec des rafales jusqu'à 26 kt

TAF: LELO 281400Z 2815/2915 VRB04KT CAVOK TX24/2815Z TN12/2906Z PROB40 TEMPO 2816/2820 01010G26KT

Observations et prévisions météorologiques de plus de 4000 aéroports (messages METAR et TAF).

Les stations disponibles sont représentées par des disques jaunes et rouges sur la carte.

Passer la souris dessus pour voir le nom de la station.

Cliquer dessus pour voir les observations et prévisions météorologiques.

Pour changer de carte: cliquez sur les boutons verts avec une croix noire pour zoomer, sur le bouton vert avec un tiret pour effectuer un zoom arrière, ou sur les flèches vertes pour les cartes adjacentes.


METAR-TAF: